createdAt,value
2018-07-20T00:02:10.665Z,97067.00
2018-07-20T00:04:53.058Z,97055.00
2018-07-20T00:07:34.932Z,97060.00
2018-07-20T00:10:16.289Z,97063.00
2018-07-20T00:12:58.393Z,97064.00
2018-07-20T00:15:39.793Z,97065.00
2018-07-20T00:18:22.050Z,97059.00
2018-07-20T00:21:03.469Z,97058.00
2018-07-20T00:23:44.906Z,97067.00
2018-07-20T00:26:27.145Z,97057.00
2018-07-20T00:29:08.526Z,97056.00
2018-07-20T00:31:50.081Z,97055.00
2018-07-20T00:34:31.898Z,97049.00
2018-07-20T00:37:13.611Z,97048.00
2018-07-20T00:39:55.833Z,97045.00
2018-07-20T00:42:37.316Z,97049.00
2018-07-20T00:45:18.941Z,97039.00
2018-07-20T00:48:00.448Z,97034.00
2018-07-20T00:50:41.945Z,97036.00
2018-07-20T00:53:24.898Z,97029.00
2018-07-20T00:56:06.701Z,97034.00
2018-07-20T00:58:48.220Z,97036.00
2018-07-20T01:01:29.896Z,97034.00
2018-07-20T01:04:11.464Z,97031.00
2018-07-20T01:06:53.860Z,97023.00
2018-07-20T01:09:35.333Z,97025.00
2018-07-20T01:12:16.720Z,97020.00
2018-07-20T01:14:57.952Z,97020.00
2018-07-20T01:17:39.377Z,97019.00
2018-07-20T01:20:20.836Z,97009.00
2018-07-20T01:23:02.237Z,97015.00
2018-07-20T01:25:43.552Z,97013.00
2018-07-20T01:28:25.847Z,97015.00
2018-07-20T01:31:07.348Z,97011.00
2018-07-20T01:33:48.728Z,97005.00
2018-07-20T01:36:30.284Z,97011.00
2018-07-20T01:39:11.666Z,97007.00
2018-07-20T01:41:53.774Z,97008.00
2018-07-20T01:44:35.481Z,97010.00
2018-07-20T01:47:17.015Z,97008.00
2018-07-20T01:49:58.404Z,97009.00
2018-07-20T01:52:39.959Z,97012.00
2018-07-20T01:55:22.065Z,97006.00
2018-07-20T01:58:03.463Z,97011.00
2018-07-20T02:04:07.644Z,97005.00
2018-07-20T02:06:49.009Z,97004.00
2018-07-20T02:09:30.767Z,97014.00
2018-07-20T02:12:11.973Z,97011.00
2018-07-20T02:14:53.401Z,97009.00
2018-07-20T02:17:34.788Z,97001.00
2018-07-20T02:20:16.361Z,97006.00
2018-07-20T02:22:58.399Z,97004.00
2018-07-20T02:25:39.862Z,97012.00
2018-07-20T02:28:21.823Z,97003.00
2018-07-20T02:31:03.356Z,97003.00
2018-07-20T02:33:44.730Z,97004.00
2018-07-20T02:36:26.755Z,96997.00
2018-07-20T02:39:12.177Z,97001.00
2018-07-20T02:41:53.637Z,96993.00
2018-07-20T02:44:35.893Z,97001.00
2018-07-20T02:47:17.325Z,97003.00
2018-07-20T02:49:59.365Z,96993.00
2018-07-20T02:52:41.212Z,97001.00
2018-07-20T02:55:23.677Z,97003.00
2018-07-20T02:58:04.960Z,97001.00
2018-07-20T03:00:46.264Z,97000.00
2018-07-20T03:03:27.850Z,96997.00
2018-07-20T03:06:09.270Z,96996.00
2018-07-20T03:08:51.759Z,96996.00
2018-07-20T03:11:33.250Z,97003.00
2018-07-20T03:14:14.818Z,97005.00
2018-07-20T03:16:56.257Z,97000.00
2018-07-20T03:19:37.844Z,97002.00
2018-07-20T03:22:19.193Z,97001.00
2018-07-20T03:25:00.595Z,97004.00
2018-07-20T03:27:42.091Z,96996.00
2018-07-20T03:30:23.518Z,96987.00
2018-07-20T03:33:04.821Z,96991.00
2018-07-20T03:35:46.158Z,96993.00
2018-07-20T03:38:27.544Z,96992.00
2018-07-20T03:41:10.228Z,96986.00
2018-07-20T03:43:52.208Z,96982.00
2018-07-20T03:46:33.518Z,96990.00
2018-07-20T03:49:14.798Z,96979.00
2018-07-20T03:51:56.268Z,96989.00
2018-07-20T03:54:37.772Z,96986.00
2018-07-20T03:57:19.093Z,96979.00
2018-07-20T04:00:00.207Z,96981.00
2018-07-20T04:02:41.620Z,96984.00
2018-07-20T04:05:23.536Z,96986.00
2018-07-20T04:08:04.987Z,96986.00
2018-07-20T04:10:46.477Z,96987.00
2018-07-20T04:13:28.069Z,96986.00
2018-07-20T04:16:09.556Z,96999.00
2018-07-20T04:18:51.829Z,96998.00
2018-07-20T04:21:33.695Z,96991.00
2018-07-20T04:24:15.057Z,96990.00
2018-07-20T04:26:56.524Z,96988.00
2018-07-20T04:29:37.928Z,96999.00
2018-07-20T04:32:19.294Z,97004.00
2018-07-20T04:35:00.903Z,97006.00
2018-07-20T04:37:42.216Z,97007.00
2018-07-20T04:40:24.693Z,97002.00
2018-07-20T04:43:06.102Z,96999.00
2018-07-20T04:45:47.556Z,97001.00
2018-07-20T04:48:28.987Z,96992.00
2018-07-20T04:51:10.324Z,96997.00
2018-07-20T04:53:52.230Z,97003.00
2018-07-20T04:56:33.554Z,96991.00
2018-07-20T04:59:14.893Z,97001.00
2018-07-20T05:01:56.516Z,97004.00
2018-07-20T05:04:37.998Z,97005.00
2018-07-20T05:07:19.490Z,97013.00
2018-07-20T05:10:00.856Z,97014.00
2018-07-20T05:12:42.192Z,97005.00
2018-07-20T05:15:25.322Z,97003.00
2018-07-20T05:18:06.336Z,97020.00
2018-07-20T05:20:47.388Z,97014.00
2018-07-20T05:23:28.724Z,97014.00
2018-07-20T05:26:10.207Z,97006.00
2018-07-20T05:28:53.924Z,97008.00
2018-07-20T05:31:35.377Z,97019.00
2018-07-20T05:34:16.812Z,97018.00
2018-07-20T05:36:58.264Z,97019.00
2018-07-20T05:39:39.660Z,97032.00
2018-07-20T05:42:21.909Z,97024.00
2018-07-20T05:45:03.244Z,97037.00
2018-07-20T05:47:44.565Z,97035.00
2018-07-20T05:50:27.593Z,97040.00
2018-07-20T05:53:08.869Z,97039.00
2018-07-20T05:55:51.879Z,97042.00
2018-07-20T05:58:34.606Z,97046.00
2018-07-20T06:01:16.061Z,97042.00
2018-07-20T06:03:57.557Z,97045.00
2018-07-20T06:06:39.083Z,97052.00
2018-07-20T06:09:20.832Z,97047.00
2018-07-20T06:12:02.321Z,97052.00
2018-07-20T06:14:43.662Z,97054.00
2018-07-20T06:17:25.899Z,97055.00
2018-07-20T06:20:09.629Z,97063.00
2018-07-20T06:22:52.041Z,97066.00
2018-07-20T06:25:33.350Z,97069.00
2018-07-20T06:28:14.794Z,97071.00
2018-07-20T06:30:56.449Z,97073.00
2018-07-20T06:33:37.789Z,97070.00
2018-07-20T06:36:19.140Z,97075.00
2018-07-20T06:39:00.589Z,97075.00
2018-07-20T06:41:42.323Z,97072.00
2018-07-20T06:44:24.741Z,97069.00
2018-07-20T06:47:06.583Z,97071.00
2018-07-20T06:49:48.151Z,97078.00
2018-07-20T06:52:30.227Z,97080.00
2018-07-20T06:55:11.945Z,97079.00
2018-07-20T06:57:53.867Z,97077.00
2018-07-20T07:00:35.155Z,97085.00
2018-07-20T07:03:16.501Z,97086.00
2018-07-20T07:05:57.909Z,97089.00
2018-07-20T07:08:39.327Z,97084.00
2018-07-20T07:11:22.178Z,97090.00
2018-07-20T07:14:03.411Z,97094.00
2018-07-20T07:16:44.697Z,97095.00
2018-07-20T07:19:26.881Z,97089.00
2018-07-20T07:22:08.231Z,97098.00
2018-07-20T07:24:51.001Z,97098.00
2018-07-20T07:27:32.658Z,97099.00
2018-07-20T07:30:13.952Z,97110.00
2018-07-20T07:32:55.895Z,97104.00
2018-07-20T07:35:37.348Z,97115.00
2018-07-20T07:38:18.712Z,97115.00
2018-07-20T07:41:00.414Z,97121.00
2018-07-20T07:43:41.912Z,97114.00
2018-07-20T07:46:24.764Z,97117.00
2018-07-20T07:49:06.716Z,97121.00
2018-07-20T07:51:48.228Z,97125.00
2018-07-20T07:54:31.023Z,97125.00
2018-07-20T07:57:12.566Z,97133.00
2018-07-20T07:59:54.540Z,97130.00
2018-07-20T08:02:35.743Z,97129.00
2018-07-20T08:05:17.177Z,97136.00
2018-07-20T08:07:58.460Z,97136.00
2018-07-20T08:10:39.691Z,97143.00
2018-07-20T08:13:21.907Z,97142.00
2018-07-20T08:16:03.255Z,97141.00
2018-07-20T08:18:44.637Z,97139.00
2018-07-20T08:21:26.807Z,97145.00
2018-07-20T08:24:08.399Z,97144.00
2018-07-20T08:26:50.997Z,97142.00
2018-07-20T08:29:32.540Z,97140.00
2018-07-20T08:32:14.081Z,97145.00
2018-07-20T08:34:56.550Z,97146.00
2018-07-20T08:37:37.917Z,97144.00
2018-07-20T08:40:19.386Z,97148.00
2018-07-20T08:43:00.898Z,97146.00
2018-07-20T08:45:42.317Z,97142.00
2018-07-20T08:48:24.706Z,97157.00
2018-07-20T08:51:06.245Z,97151.00
2018-07-20T08:53:47.818Z,97148.00
2018-07-20T08:56:29.331Z,97154.00
2018-07-20T08:59:10.744Z,97154.00
2018-07-20T09:01:53.834Z,97157.00
2018-07-20T09:04:35.296Z,97154.00
2018-07-20T09:07:16.667Z,97153.00
2018-07-20T09:09:58.084Z,97156.00
2018-07-20T09:12:39.734Z,97155.00
2018-07-20T09:15:22.065Z,97160.00
2018-07-20T09:18:04.516Z,97159.00
2018-07-20T09:20:46.094Z,97155.00
2018-07-20T09:23:27.656Z,97157.00
2018-07-20T09:26:09.381Z,97166.00
2018-07-20T09:28:51.779Z,97161.00
2018-07-20T09:31:33.159Z,97159.00
2018-07-20T09:34:14.443Z,97160.00
2018-07-20T09:36:56.619Z,97155.00
2018-07-20T09:39:38.016Z,97157.00
2018-07-20T09:42:20.975Z,97164.00
2018-07-20T09:45:03.420Z,97163.00
2018-07-20T09:47:44.991Z,97155.00
2018-07-20T09:50:26.452Z,97151.00
2018-07-20T09:53:08.009Z,97150.00
2018-07-20T09:55:49.532Z,97160.00
2018-07-20T09:58:31.104Z,97161.00
2018-07-20T10:01:13.326Z,97166.00
2018-07-20T10:03:55.874Z,97155.00
2018-07-20T10:06:37.403Z,97156.00
2018-07-20T10:09:18.888Z,97152.00
2018-07-20T10:12:00.655Z,97154.00
2018-07-20T10:14:56.490Z,97163.00
2018-07-20T10:17:39.741Z,97166.00
2018-07-20T10:20:21.603Z,97158.00
2018-07-20T10:23:03.240Z,97165.00
2018-07-20T10:25:44.713Z,97166.00
2018-07-20T10:28:26.387Z,97161.00
2018-07-20T10:31:07.781Z,97158.00
2018-07-20T10:33:49.007Z,97168.00
2018-07-20T10:36:30.655Z,97165.00
2018-07-20T10:39:14.909Z,97148.00
2018-07-20T10:41:56.453Z,97157.00
2018-07-20T10:44:37.816Z,97143.00
2018-07-20T10:47:19.325Z,97152.00
2018-07-20T10:50:01.747Z,97144.00
2018-07-20T10:52:43.036Z,97148.00
2018-07-20T10:55:25.851Z,97157.00
2018-07-20T10:58:07.428Z,97154.00
2018-07-20T11:00:48.928Z,97151.00
2018-07-20T11:03:30.702Z,97148.00
2018-07-20T11:06:12.216Z,97150.00
2018-07-20T11:08:54.823Z,97149.00
2018-07-20T11:11:36.632Z,97132.00
2018-07-20T11:14:18.015Z,97137.00
2018-07-20T11:16:59.569Z,97144.00
2018-07-20T11:19:41.330Z,97141.00
2018-07-20T11:22:23.941Z,97142.00
2018-07-20T11:25:05.575Z,97145.00
2018-07-20T11:27:47.880Z,97144.00
2018-07-20T11:30:29.373Z,97136.00
2018-07-20T11:33:11.270Z,97126.00
2018-07-20T11:35:54.171Z,97137.00
2018-07-20T11:38:35.619Z,97127.00
2018-07-20T11:41:17.260Z,97136.00
2018-07-20T11:43:58.708Z,97136.00
2018-07-20T11:46:40.286Z,97132.00
2018-07-20T11:49:22.596Z,97128.00
2018-07-20T11:52:04.005Z,97130.00
2018-07-20T11:54:45.583Z,97124.00
2018-07-20T11:57:27.163Z,97130.00
2018-07-20T12:00:08.664Z,97124.00
2018-07-20T12:02:51.611Z,97124.00
2018-07-20T12:05:33.772Z,97120.00
2018-07-20T12:08:15.252Z,97120.00
2018-07-20T12:10:57.058Z,97116.00
2018-07-20T12:13:38.680Z,97122.00
2018-07-20T12:16:21.046Z,97115.00
2018-07-20T12:19:02.780Z,97114.00
2018-07-20T12:21:44.138Z,97113.00
2018-07-20T12:24:26.333Z,97109.00
2018-07-20T12:27:08.075Z,97113.00
2018-07-20T12:29:49.752Z,97109.00
2018-07-20T12:32:31.135Z,97101.00
2018-07-20T12:35:12.681Z,97107.00
2018-07-20T12:37:54.870Z,97102.00
2018-07-20T12:40:36.463Z,97097.00
2018-07-20T12:43:17.904Z,97094.00
2018-07-20T12:45:59.389Z,97096.00
2018-07-20T12:48:40.800Z,97094.00
2018-07-20T12:51:23.010Z,97096.00
2018-07-20T12:54:04.511Z,97082.00
2018-07-20T12:56:46.162Z,97084.00
2018-07-20T12:59:27.660Z,97079.00
2018-07-20T13:02:09.068Z,97082.00
2018-07-20T13:04:51.566Z,97074.00
2018-07-20T13:07:33.875Z,97080.00
2018-07-20T13:10:16.454Z,97073.00
2018-07-20T13:12:57.930Z,97075.00
2018-07-20T13:15:39.486Z,97065.00
2018-07-20T13:18:22.101Z,97066.00
2018-07-20T13:21:03.732Z,97074.00
2018-07-20T13:23:45.271Z,97072.00
2018-07-20T13:26:26.880Z,97066.00
2018-07-20T13:29:08.730Z,97071.00
2018-07-20T13:31:51.056Z,97070.00
2018-07-20T13:34:33.364Z,97066.00
2018-07-20T13:37:14.820Z,97056.00
2018-07-20T13:39:56.853Z,97061.00
2018-07-20T13:42:38.264Z,97060.00
2018-07-20T13:45:19.885Z,97059.00
2018-07-20T13:48:01.587Z,97052.00
2018-07-20T13:50:43.110Z,97048.00
2018-07-20T13:53:25.323Z,97042.00
2018-07-20T13:56:07.069Z,97045.00
2018-07-20T13:58:48.694Z,97048.00
2018-07-20T14:01:30.603Z,97046.00
2018-07-20T14:04:12.142Z,97041.00
2018-07-20T14:06:53.870Z,97036.00
2018-07-20T14:09:35.431Z,97037.00
2018-07-20T14:12:16.903Z,97036.00
2018-07-20T14:14:58.558Z,97039.00
2018-07-20T14:17:39.856Z,97035.00
2018-07-20T14:20:21.943Z,97030.00
2018-07-20T14:23:03.618Z,97024.00
2018-07-20T14:25:46.008Z,97022.00
2018-07-20T14:28:27.927Z,97013.00
2018-07-20T14:31:09.428Z,97012.00
2018-07-20T14:33:51.831Z,97020.00
2018-07-20T14:36:33.406Z,97017.00
2018-07-20T14:39:14.997Z,97019.00
2018-07-20T14:41:56.864Z,97020.00
2018-07-20T14:44:38.547Z,97015.00
2018-07-20T14:47:21.007Z,97017.00
2018-07-20T14:50:02.686Z,97005.00
2018-07-20T14:52:44.220Z,97012.00
2018-07-20T14:55:26.176Z,97010.00
2018-07-20T14:58:08.350Z,97009.00
2018-07-20T15:00:49.927Z,97016.00
2018-07-20T15:03:31.367Z,97010.00
2018-07-20T15:06:12.844Z,97010.00
2018-07-20T15:08:55.083Z,97013.00
2018-07-20T15:11:36.696Z,97010.00
2018-07-20T15:14:18.263Z,97017.00
2018-07-20T15:16:59.722Z,97018.00
2018-07-20T15:19:41.179Z,97014.00
2018-07-20T15:22:23.935Z,97018.00
2018-07-20T15:25:05.720Z,97016.00
2018-07-20T15:27:47.212Z,97004.00
2018-07-20T15:30:28.386Z,97016.00
2018-07-20T15:33:09.920Z,97016.00
2018-07-20T15:35:52.008Z,97008.00
2018-07-20T15:38:33.688Z,97011.00
2018-07-20T15:41:15.191Z,97010.00
2018-07-20T15:43:56.721Z,97013.00
2018-07-20T15:46:39.202Z,97016.00
2018-07-20T15:49:22.901Z,97020.00
2018-07-20T15:54:46.243Z,97020.00
2018-07-20T15:57:27.672Z,97026.00
2018-07-20T16:00:09.125Z,97024.00
2018-07-20T16:02:50.883Z,97020.00
2018-07-20T16:05:32.478Z,97017.00
2018-07-20T16:08:14.068Z,97014.00
2018-07-20T16:10:57.694Z,97019.00
2018-07-20T16:13:39.311Z,97017.00
2018-07-20T16:16:21.087Z,97017.00
2018-07-20T16:19:02.583Z,97022.00
2018-07-20T16:21:44.134Z,97020.00
2018-07-20T16:24:26.271Z,97021.00
2018-07-20T16:27:07.731Z,97023.00
2018-07-20T16:29:49.194Z,97018.00
2018-07-20T16:32:30.928Z,97018.00
2018-07-20T16:35:12.392Z,97023.00
2018-07-20T16:37:54.048Z,97012.00
2018-07-20T16:40:35.595Z,97014.00
2018-07-20T16:43:17.460Z,97015.00
2018-07-20T16:45:59.324Z,97009.00
2018-07-20T16:48:40.864Z,97018.00
2018-07-20T16:51:25.214Z,97011.00
2018-07-20T16:54:06.803Z,97008.00
2018-07-20T16:56:48.453Z,97005.00
2018-07-20T16:59:30.084Z,97005.00
2018-07-20T17:02:12.023Z,97003.00
2018-07-20T17:04:55.116Z,96991.00
2018-07-20T17:07:36.597Z,97007.00
2018-07-20T17:10:18.121Z,97001.00
2018-07-20T17:13:02.491Z,97006.00
2018-07-20T17:15:44.073Z,97010.00
2018-07-20T17:18:28.142Z,97003.00
2018-07-20T17:21:09.705Z,97005.00
2018-07-20T17:23:52.207Z,97008.00
2018-07-20T17:26:33.561Z,97008.00
2018-07-20T17:29:15.123Z,97011.00
2018-07-20T17:31:57.391Z,97014.00
2018-07-20T17:34:39.717Z,97008.00
2018-07-20T17:37:22.228Z,97010.00
2018-07-20T17:40:05.507Z,97009.00
2018-07-20T17:42:48.221Z,97010.00
2018-07-20T17:45:29.824Z,97010.00
2018-07-20T17:48:11.351Z,97014.00
2018-07-20T17:50:54.092Z,97017.00
2018-07-20T17:53:36.153Z,97014.00
2018-07-20T17:56:17.768Z,97020.00
2018-07-20T17:58:59.355Z,97025.00
2018-07-20T18:01:40.806Z,97026.00
2018-07-20T18:04:24.036Z,97023.00
2018-07-20T18:07:05.509Z,97032.00
2018-07-20T18:09:46.959Z,97028.00
2018-07-20T18:12:28.405Z,97030.00
2018-07-20T18:15:12.072Z,97033.00
2018-07-20T18:17:55.313Z,97042.00
2018-07-20T18:20:36.748Z,97046.00
2018-07-20T18:23:24.678Z,97055.00
2018-07-20T18:26:06.235Z,97046.00
2018-07-20T18:28:47.636Z,97042.00
2018-07-20T18:31:29.056Z,97043.00
2018-07-20T18:34:11.796Z,97042.00
2018-07-20T18:36:54.091Z,97050.00
2018-07-20T18:39:35.845Z,97050.00
2018-07-20T18:42:17.272Z,97052.00
2018-07-20T18:44:58.761Z,97060.00
2018-07-20T18:47:40.720Z,97056.00
2018-07-20T18:50:22.808Z,97057.00
2018-07-20T18:53:04.481Z,97060.00
2018-07-20T18:55:46.112Z,97060.00
2018-07-20T18:58:27.675Z,97069.00
2018-07-20T19:01:09.727Z,97064.00
2018-07-20T19:03:52.307Z,97067.00
2018-07-20T19:06:33.731Z,97075.00
2018-07-20T19:09:15.424Z,97071.00
2018-07-20T19:11:56.960Z,97069.00
2018-07-20T19:14:39.172Z,97070.00
2018-07-20T19:17:21.273Z,97078.00
2018-07-20T19:20:03.571Z,97076.00
2018-07-20T19:22:45.244Z,97073.00
2018-07-20T19:25:26.845Z,97077.00
2018-07-20T19:28:11.328Z,97074.00
2018-07-20T19:30:54.014Z,97095.00
2018-07-20T19:33:35.556Z,97081.00
2018-07-20T19:36:17.133Z,97069.00
2018-07-20T19:38:58.610Z,97076.00
2018-07-20T19:41:46.570Z,97075.00
2018-07-20T19:44:31.375Z,97074.00
2018-07-20T19:47:13.005Z,97079.00
2018-07-20T19:49:55.460Z,97075.00
2018-07-20T19:52:37.095Z,97070.00
2018-07-20T19:55:18.255Z,97077.00
2018-07-20T19:57:59.632Z,97075.00
2018-07-20T20:00:41.131Z,97076.00
2018-07-20T20:03:24.280Z,97076.00
2018-07-20T20:06:06.146Z,97066.00
2018-07-20T20:08:48.539Z,97078.00
2018-07-20T20:11:33.653Z,97084.00
2018-07-20T20:14:15.318Z,97078.00
2018-07-20T20:17:06.697Z,97083.00
2018-07-20T20:19:48.210Z,97084.00
2018-07-20T20:22:29.761Z,97091.00
2018-07-20T20:25:11.367Z,97091.00
2018-07-20T20:27:54.642Z,97091.00
2018-07-20T20:30:43.446Z,97096.00
2018-07-20T20:33:25.759Z,97091.00
2018-07-20T20:36:07.140Z,97091.00
2018-07-20T20:38:48.631Z,97093.00
2018-07-20T20:41:30.263Z,97094.00
2018-07-20T20:44:11.657Z,97096.00
2018-07-20T20:46:53.900Z,97100.00
2018-07-20T20:49:35.795Z,97091.00
2018-07-20T20:52:17.360Z,97089.00
2018-07-20T20:54:58.746Z,97091.00
2018-07-20T20:57:40.056Z,97094.00
2018-07-20T21:00:22.335Z,97102.00
2018-07-20T21:03:03.870Z,97097.00
2018-07-20T21:05:45.750Z,97098.00
2018-07-20T21:08:27.740Z,97097.00
2018-07-20T21:11:09.254Z,97101.00
2018-07-20T21:13:50.675Z,97097.00
2018-07-20T21:16:32.210Z,97093.00
2018-07-20T21:19:13.928Z,97097.00
2018-07-20T21:21:55.904Z,97096.00
2018-07-20T21:24:37.370Z,97092.00
2018-07-20T21:27:18.789Z,97084.00
2018-07-20T21:30:00.316Z,97091.00
2018-07-20T21:32:41.821Z,97087.00
2018-07-20T21:35:23.756Z,97082.00
2018-07-20T21:38:05.125Z,97089.00
2018-07-20T21:40:46.618Z,97092.00
2018-07-20T21:43:28.083Z,97086.00
2018-07-20T21:46:09.810Z,97084.00
2018-07-20T21:48:52.180Z,97086.00
2018-07-20T21:51:33.615Z,97080.00
2018-07-20T21:54:15.234Z,97088.00
2018-07-20T21:56:57.051Z,97084.00
2018-07-20T21:59:38.470Z,97086.00
2018-07-20T22:02:19.925Z,97079.00
2018-07-20T22:05:02.867Z,97088.00
2018-07-20T22:07:44.539Z,97080.00
2018-07-20T22:10:26.701Z,97082.00
2018-07-20T22:13:08.285Z,97085.00
2018-07-20T22:15:49.617Z,97091.00
2018-07-20T22:18:31.904Z,97092.00
2018-07-20T22:21:13.616Z,97089.00
2018-07-20T22:23:56.399Z,97083.00
2018-07-20T22:26:38.004Z,97077.00
2018-07-20T22:29:19.444Z,97087.00
2018-07-20T22:32:01.884Z,97083.00
2018-07-20T22:34:43.460Z,97079.00
2018-07-20T22:37:24.747Z,97083.00
2018-07-20T22:40:07.003Z,97079.00
2018-07-20T22:42:48.840Z,97078.00
2018-07-20T22:45:30.235Z,97084.00
2018-07-20T22:48:12.195Z,97081.00
2018-07-20T22:50:55.375Z,97074.00
2018-07-20T22:53:37.076Z,97078.00
2018-07-20T22:56:18.597Z,97073.00
2018-07-20T22:59:00.000Z,97078.00
2018-07-20T23:01:41.285Z,97075.00
2018-07-20T23:04:23.692Z,97069.00
2018-07-20T23:07:05.298Z,97072.00
2018-07-20T23:09:46.651Z,97075.00
2018-07-20T23:12:28.211Z,97070.00
2018-07-20T23:15:09.618Z,97069.00
2018-07-20T23:17:51.139Z,97073.00
2018-07-20T23:20:32.699Z,97071.00
2018-07-20T23:23:14.131Z,97077.00
2018-07-20T23:25:55.894Z,97077.00
2018-07-20T23:28:37.307Z,97077.00
2018-07-20T23:31:18.997Z,97084.00
2018-07-20T23:34:00.426Z,97085.00
2018-07-20T23:36:41.914Z,97095.00
2018-07-20T23:39:23.806Z,97091.00
2018-07-20T23:45:16.673Z,97090.00
2018-07-20T23:47:58.318Z,97084.00
2018-07-20T23:50:39.930Z,97084.00
2018-07-20T23:53:22.216Z,97085.00
2018-07-20T23:56:03.733Z,97076.00
2018-07-20T23:58:45.132Z,97085.00
